createdAt,value
2017-06-25T09:21:10.378Z,25.6
2017-06-25T09:21:31.779Z,25.7
2017-06-25T09:21:52.415Z,25.7
2017-06-25T09:22:13.679Z,25.8
2017-06-25T09:22:34.317Z,25.7
2017-06-25T09:22:54.948Z,25.7
2017-06-25T09:23:15.937Z,25.8
2017-06-25T09:23:36.493Z,25.8
2017-06-25T09:23:57.175Z,25.7
2017-06-25T09:24:18.043Z,25.8
2017-06-25T09:24:38.848Z,25.8
2017-06-25T09:25:00.205Z,25.8
2017-06-25T09:25:21.304Z,25.8
2017-06-25T09:25:43.282Z,25.8
2017-06-25T09:26:05.403Z,25.7
2017-06-25T09:26:28.244Z,25.8
2017-06-25T09:26:50.221Z,25.7
2017-06-25T09:27:11.512Z,25.7
2017-06-25T09:27:33.217Z,25.8
2017-06-25T09:27:55.842Z,25.7
2017-06-25T09:28:17.434Z,25.8
2017-06-25T09:28:39.548Z,25.7
2017-06-25T09:29:02.510Z,25.7
2017-06-25T09:29:24.703Z,25.7
2017-06-25T09:29:46.495Z,25.8
2017-06-25T09:30:09.393Z,25.8
2017-06-25T09:30:33.340Z,25.8
2017-06-25T09:30:56.482Z,25.8
2017-06-25T09:31:17.853Z,25.9
2017-06-25T09:31:39.636Z,25.9
2017-06-25T09:32:00.972Z,25.8
2017-06-25T09:32:21.937Z,25.9
2017-06-25T09:32:43.718Z,25.9
2017-06-25T09:33:06.955Z,25.8
2017-06-25T09:33:27.956Z,25.8
2017-06-25T09:33:48.693Z,25.9
2017-06-25T09:34:09.253Z,25.9
2017-06-25T09:34:30.748Z,25.8
2017-06-25T09:34:52.242Z,25.7
2017-06-25T09:35:12.755Z,25.7
2017-06-25T09:35:33.267Z,25.7
2017-06-25T09:35:54.733Z,25.6
2017-06-25T09:36:15.273Z,25.6
2017-06-25T09:36:35.834Z,25.4
2017-06-25T09:36:56.640Z,25.5
2017-06-25T09:37:17.858Z,25.5
2017-06-25T09:37:38.424Z,25.5
2017-06-25T09:37:58.964Z,25.6
2017-06-25T09:38:19.510Z,25.6
2017-06-25T09:38:40.065Z,25.6
2017-06-25T09:39:00.588Z,25.7
2017-06-25T09:39:21.186Z,25.7
2017-06-25T09:39:42.042Z,25.8
2017-06-25T09:40:02.646Z,25.9
2017-06-25T09:40:23.241Z,25.8
2017-06-25T09:40:44.696Z,25.9
2017-06-25T09:41:06.287Z,25.9
2017-06-25T09:41:27.025Z,25.9
2017-06-25T09:41:47.569Z,25.9
2017-06-25T09:42:08.104Z,25.9
2017-06-25T09:42:29.202Z,26
2017-06-25T09:42:49.740Z,26
2017-06-25T09:43:10.488Z,26
2017-06-25T09:43:31.096Z,25.9
2017-06-25T09:43:51.655Z,26
2017-06-25T09:44:12.754Z,26
2017-06-25T09:44:33.307Z,26
2017-06-25T09:44:54.701Z,26
2017-06-25T09:45:15.251Z,25.9
2017-06-25T09:45:35.793Z,25.9
2017-06-25T09:45:56.319Z,26
2017-06-25T09:46:17.781Z,26
2017-06-25T09:46:38.313Z,26
2017-06-25T09:46:58.979Z,26.1
2017-06-25T09:47:20.344Z,26.1
2017-06-25T09:47:41.125Z,26.1
2017-06-25T09:48:02.242Z,25.9
2017-06-25T09:48:23.792Z,25.9
2017-06-25T09:48:44.398Z,25.9
2017-06-25T09:49:05.023Z,25.9
2017-06-25T09:49:26.324Z,26.1
2017-06-25T09:49:46.857Z,26.1
2017-06-25T09:50:08.277Z,26.1
2017-06-25T09:50:29.719Z,26.1
2017-06-25T09:50:50.337Z,26
2017-06-25T09:51:11.854Z,26.1
2017-06-25T09:51:32.423Z,26.1
2017-06-25T09:51:53.799Z,26
2017-06-25T09:52:16.249Z,26
2017-06-25T09:52:36.823Z,26
2017-06-25T09:52:57.397Z,25.9
2017-06-25T09:53:17.944Z,25.9
2017-06-25T09:53:38.501Z,25.9
2017-06-25T09:53:59.039Z,25.9
2017-06-25T09:54:19.585Z,26
2017-06-25T09:54:40.129Z,25.9
2017-06-25T09:55:00.684Z,25.9
2017-06-25T09:55:21.861Z,25.9
2017-06-25T09:55:42.447Z,26
2017-06-25T09:56:02.982Z,26
2017-06-25T09:56:23.700Z,25.9
2017-06-25T09:56:44.310Z,25.9
2017-06-25T09:57:05.052Z,25.9
2017-06-25T13:37:43.649Z,27.5
2017-06-25T13:38:04.205Z,27.6
2017-06-25T13:38:25.594Z,27.6
2017-06-25T13:38:46.123Z,27.7
2017-06-25T13:39:06.662Z,27.8
2017-06-25T13:39:28.029Z,27.7
2017-06-25T13:39:49.514Z,27.8
2017-06-25T13:40:10.057Z,27.9
2017-06-25T13:40:30.628Z,28
2017-06-25T13:40:51.180Z,28.1
2017-06-25T13:41:11.729Z,28.1
2017-06-25T13:41:32.295Z,28.2
2017-06-25T13:41:52.852Z,28.2
2017-06-25T13:42:14.525Z,28.3
2017-06-25T13:42:35.062Z,28.3
2017-06-25T13:42:55.606Z,28.4
2017-06-25T13:43:16.969Z,28.3
2017-06-25T13:43:38.504Z,28.3
2017-06-25T13:43:59.050Z,28.4
2017-06-25T13:44:19.597Z,28.4
2017-06-25T13:44:40.136Z,28.4
2017-06-25T13:45:01.499Z,28.3
2017-06-25T13:45:22.034Z,28.3
2017-06-25T13:45:42.782Z,28.3
2017-06-25T13:46:03.340Z,28.2
2017-06-25T13:46:24.490Z,28.2
2017-06-25T13:46:45.040Z,28.2
2017-06-25T13:47:05.609Z,28.1
2017-06-25T13:47:26.174Z,28.2
2017-06-25T13:47:46.700Z,28.2
2017-06-25T13:48:07.222Z,28.2
2017-06-25T13:48:28.787Z,28.2
2017-06-25T13:48:49.342Z,28.2
2017-06-25T13:49:10.492Z,28.2
2017-06-25T13:49:31.505Z,28.2
2017-06-25T13:49:52.046Z,28.2
2017-06-25T13:50:13.554Z,28.2
2017-06-25T13:50:34.111Z,28.1
2017-06-25T13:50:54.664Z,28.1
2017-06-25T13:51:15.246Z,28
2017-06-25T13:51:35.782Z,27.9
2017-06-25T13:51:56.316Z,27.8
2017-06-25T13:52:16.883Z,27.7
2017-06-25T13:52:37.496Z,27.5
2017-06-25T13:52:58.042Z,27.4
2017-06-25T13:53:19.050Z,27.4
2017-06-25T13:53:39.841Z,27.3
2017-06-25T13:54:00.376Z,27.3
2017-06-25T13:54:21.063Z,27.3
2017-06-25T13:54:41.819Z,27.4
2017-06-25T13:55:03.035Z,27.2
2017-06-25T13:55:23.622Z,27.3
2017-06-25T13:55:45.001Z,27.2
2017-06-25T13:56:07.104Z,27.2
2017-06-25T13:56:28.506Z,27.2
2017-06-25T13:56:49.210Z,27.3
2017-06-25T13:57:09.791Z,27.2
2017-06-25T13:57:30.352Z,27.2
2017-06-25T13:57:50.944Z,27.2
2017-06-25T13:58:11.588Z,27.2
2017-06-25T13:58:32.156Z,27.2
2017-06-25T13:58:52.699Z,27.2
2017-06-25T13:59:13.245Z,27.3
2017-06-25T13:59:33.800Z,27.2
2017-06-25T13:59:54.346Z,27.3
2017-06-25T14:00:14.944Z,27.3
2017-06-25T14:00:38.990Z,27.3
2017-06-25T14:00:59.669Z,27.2
2017-06-25T14:01:21.131Z,27.3
2017-06-25T14:01:42.595Z,27.2
2017-06-25T14:02:03.156Z,27.3
2017-06-25T14:02:23.845Z,27.3
2017-06-25T14:02:44.391Z,27.5
2017-06-25T14:03:05.621Z,27.5
2017-06-25T14:03:26.398Z,27.5
2017-06-25T14:03:46.935Z,27.5
2017-06-25T14:04:07.464Z,27.6
2017-06-25T14:04:28.070Z,27.5
2017-06-25T14:04:48.656Z,27.7
2017-06-25T14:05:09.186Z,27.7
2017-06-25T14:05:30.585Z,27.8
2017-06-25T14:05:51.149Z,27.7
2017-06-25T14:06:11.687Z,27.7
2017-06-25T14:06:32.250Z,27.7
2017-06-25T14:06:53.490Z,27.6
2017-06-25T14:07:14.188Z,27.5
2017-06-25T14:07:34.763Z,27.6
2017-06-25T14:07:55.297Z,27.5
2017-06-25T14:08:30.189Z,27.5
2017-06-25T14:08:50.766Z,27.5
2017-06-25T14:09:11.297Z,27.5
2017-06-25T14:09:31.828Z,27.5
2017-06-25T14:09:52.358Z,27.6
2017-06-25T14:10:12.915Z,27.5
2017-06-25T14:10:33.754Z,27.5
2017-06-25T14:10:54.404Z,27.4
2017-06-25T14:11:14.924Z,27.4
2017-06-25T14:11:35.459Z,27.3
2017-06-25T14:11:56.029Z,27.4
2017-06-25T14:12:16.572Z,27.4
2017-06-25T14:12:37.109Z,27.3
2017-06-25T14:12:57.821Z,27.3
2017-06-25T14:13:18.358Z,27.3
2017-06-25T14:13:38.914Z,27.2
2017-06-25T14:13:59.491Z,27.2
2017-06-25T14:14:20.033Z,27.2
2017-06-25T14:14:40.551Z,27.2
2017-06-25T14:15:01.118Z,27.1
2017-06-25T14:15:22.657Z,27
2017-06-25T14:15:44.015Z,26.9
2017-06-25T14:16:04.545Z,27
2017-06-25T14:16:25.633Z,27
2017-06-25T14:16:47.088Z,27
2017-06-25T14:17:07.764Z,26.9
2017-06-25T14:17:31.367Z,27
2017-06-25T14:17:51.978Z,26.8
2017-06-25T14:18:12.577Z,26.8
2017-06-25T14:18:33.135Z,26.9
2017-06-25T14:18:53.677Z,26.8
2017-06-25T14:19:14.307Z,26.8
2017-06-25T14:19:34.852Z,26.7
2017-06-25T14:19:55.395Z,26.7
2017-06-25T14:20:16.042Z,26.7
2017-06-25T14:20:36.590Z,26.7
2017-06-25T14:20:57.318Z,26.7
2017-06-25T14:21:18.247Z,26.7
2017-06-25T14:21:39.526Z,26.7
2017-06-25T14:22:00.915Z,26.7
2017-06-25T14:22:21.452Z,26.7
2017-06-25T14:22:42.000Z,26.7
2017-06-25T14:23:02.590Z,26.7
2017-06-25T14:23:23.140Z,26.7
2017-06-25T14:23:43.786Z,26.7
2017-06-25T14:24:04.389Z,26.7
2017-06-25T14:24:25.616Z,26.7
2017-06-25T14:24:46.161Z,26.7
2017-06-25T14:25:06.685Z,26.7
2017-06-25T14:25:27.258Z,26.7
2017-06-25T14:25:47.784Z,26.7
2017-06-25T14:26:08.325Z,26.7
2017-06-25T14:26:28.856Z,26.7
2017-06-25T14:26:49.388Z,26.7
2017-06-25T14:27:09.921Z,26.7
2017-06-25T14:27:30.457Z,26.8
2017-06-25T14:27:51.510Z,26.7
2017-06-25T14:28:12.041Z,26.7
2017-06-25T14:28:32.573Z,26.8
2017-06-25T14:28:53.109Z,26.8
2017-06-25T14:29:13.656Z,26.9
2017-06-25T14:29:35.582Z,26.8
2017-06-25T14:29:57.072Z,26.8
2017-06-25T14:30:17.602Z,26.8
2017-06-25T14:30:38.169Z,26.7
2017-06-25T14:30:58.720Z,26.8
2017-06-25T14:31:19.292Z,26.7
2017-06-25T14:31:39.851Z,26.7
2017-06-25T14:32:01.015Z,26.8
2017-06-25T14:32:21.552Z,26.7
2017-06-25T14:32:42.093Z,26.6
2017-06-25T14:33:02.647Z,26.6
2017-06-25T14:33:23.183Z,26.7
2017-06-25T14:33:43.728Z,26.6
2017-06-25T14:34:06.018Z,26.6
2017-06-25T14:34:27.542Z,26.7
2017-06-25T14:34:49.069Z,26.6
2017-06-25T14:35:09.612Z,26.6
2017-06-25T14:35:30.161Z,26.7
2017-06-25T14:35:52.015Z,26.7
2017-06-25T14:36:13.517Z,26.7
2017-06-25T14:36:34.561Z,26.7
2017-06-25T14:36:55.119Z,26.7
2017-06-25T14:37:15.669Z,26.8
2017-06-25T14:37:37.026Z,26.8
2017-06-25T14:37:57.562Z,26.7
2017-06-25T14:38:18.109Z,26.6
2017-06-25T14:38:38.648Z,26.7
2017-06-25T14:38:59.217Z,26.6
2017-06-25T14:39:19.785Z,26.6
2017-06-25T14:39:40.359Z,26.7
2017-06-25T14:40:01.614Z,26.7
2017-06-25T14:40:22.169Z,26.7
2017-06-25T14:40:42.695Z,26.8
2017-06-25T14:41:03.245Z,26.8
2017-06-25T14:41:23.802Z,26.8
2017-06-25T14:41:44.350Z,27
2017-06-25T14:42:04.885Z,27
2017-06-25T14:42:26.111Z,26.9
2017-06-25T14:42:47.589Z,27
2017-06-25T14:43:08.121Z,27.1
2017-06-25T14:43:28.655Z,27.1
2017-06-25T14:43:49.214Z,27.2
2017-06-25T14:44:09.774Z,27.2
2017-06-25T14:44:30.389Z,27.2
2017-06-25T14:44:51.563Z,27.3
2017-06-25T14:45:12.102Z,27.3
2017-06-25T14:45:32.650Z,27.4
2017-06-25T14:45:53.191Z,27.5
2017-06-25T14:46:13.732Z,27.6
2017-06-25T14:46:34.277Z,27.6
2017-06-25T14:46:54.860Z,27.8
2017-06-25T14:47:15.441Z,27.8
2017-06-25T14:47:35.990Z,27.8
2017-06-25T14:47:57.091Z,27.8
2017-06-25T14:48:17.639Z,27.8
2017-06-25T14:48:38.191Z,27.8
2017-06-25T14:48:58.731Z,27.9
2017-06-25T14:49:19.266Z,27.9
2017-06-25T14:49:39.792Z,27.9
2017-06-25T14:50:00.348Z,27.9
2017-06-25T14:50:20.890Z,28
2017-06-25T14:50:41.479Z,28.1
2017-06-25T14:51:02.040Z,28.1
2017-06-25T14:51:22.582Z,28.1
2017-06-25T14:51:43.134Z,28.1
2017-06-25T14:52:03.657Z,28.1
2017-06-25T14:52:25.081Z,28.1
2017-06-25T14:52:45.612Z,28.1
2017-06-25T14:53:07.044Z,28.2
2017-06-25T14:53:27.603Z,28.2
2017-06-25T14:53:48.130Z,28.2
2017-06-25T14:54:08.686Z,28.2
2017-06-25T14:54:29.225Z,28.1
2017-06-25T14:54:50.612Z,28.2
2017-06-25T14:55:11.392Z,28.2
2017-06-25T14:55:32.020Z,28.1
2017-06-25T14:55:52.565Z,28.1
2017-06-25T14:56:13.120Z,28.1
2017-06-25T14:56:33.652Z,28
2017-06-25T14:56:54.192Z,28
2017-06-25T14:57:14.744Z,27.9
2017-06-25T14:57:35.305Z,27.8
2017-06-25T14:57:55.846Z,27.7
2017-06-25T14:58:17.037Z,27.5
2017-06-25T14:58:37.621Z,27.4
2017-06-25T14:58:58.160Z,27.4
2017-06-25T14:59:18.736Z,27.4
2017-06-25T14:59:39.297Z,27.4
2017-06-25T14:59:59.833Z,27.3
2017-06-25T15:00:20.384Z,27.3
2017-06-25T15:00:41.608Z,27.3
2017-06-25T15:01:02.134Z,27.3
2017-06-25T15:01:22.680Z,27.4
2017-06-25T15:01:43.229Z,27.4
2017-06-25T15:02:04.629Z,27.5
2017-06-25T15:02:25.165Z,27.4
2017-06-25T15:02:45.714Z,27.5
2017-06-25T15:03:06.252Z,27.5
2017-06-25T15:03:26.792Z,27.5
2017-06-25T15:03:47.331Z,27.5
2017-06-25T15:04:08.678Z,27.4
2017-06-25T15:04:29.233Z,27.3
2017-06-25T15:04:49.758Z,27.3
2017-06-25T15:05:10.309Z,27.3
2017-06-25T15:05:31.635Z,27.2
2017-06-25T15:05:52.181Z,27.3
2017-06-25T15:06:13.628Z,27.2
2017-06-25T15:06:34.155Z,27.2
2017-06-25T15:06:54.700Z,27.2
2017-06-25T15:07:15.259Z,27.2
2017-06-25T15:07:35.807Z,27.2
2017-06-25T15:07:57.113Z,27.2
2017-06-25T15:08:17.723Z,27.2
2017-06-25T15:08:39.119Z,27.1
2017-06-25T15:09:00.610Z,27.1
2017-06-25T15:09:21.157Z,27.1
2017-06-25T15:09:43.101Z,27
2017-06-25T15:10:04.606Z,27
2017-06-25T15:10:26.116Z,27
2017-06-25T15:10:46.668Z,27
2017-06-25T15:11:07.226Z,26.9
2017-06-25T15:11:27.779Z,27
2017-06-25T15:11:48.359Z,27
2017-06-25T15:12:09.546Z,27
2017-06-25T15:12:30.093Z,27.1
2017-06-25T15:12:51.571Z,27
2017-06-25T15:13:13.052Z,27.1
2017-06-25T15:13:33.601Z,27.2
2017-06-25T15:13:54.161Z,27.2
2017-06-25T15:14:15.300Z,27.2
2017-06-25T15:14:35.816Z,27.1
2017-06-25T15:14:56.354Z,27.1
2017-06-25T15:15:16.917Z,27.1
2017-06-25T15:15:37.522Z,27
2017-06-25T15:15:58.058Z,27.1
2017-06-25T15:16:18.634Z,27.1
2017-06-25T15:16:40.053Z,27.1
2017-06-25T15:17:01.110Z,27
2017-06-25T15:17:21.678Z,27
2017-06-25T15:17:42.223Z,26.9
2017-06-25T15:18:02.765Z,26.8
2017-06-25T15:18:23.304Z,26.8
2017-06-25T15:18:44.619Z,26.8
2017-06-25T15:19:06.069Z,26.7
2017-06-25T15:19:26.608Z,26.7
2017-06-25T15:19:47.178Z,26.6
2017-06-25T15:20:07.712Z,26.5
2017-06-25T15:20:28.284Z,26.5
2017-06-25T15:20:48.860Z,26.5
2017-06-25T15:21:09.384Z,26.5
2017-06-25T15:21:29.908Z,26.4
2017-06-25T15:21:50.735Z,26.4
2017-06-25T15:22:11.292Z,26.3
2017-06-25T15:22:33.559Z,26.4
2017-06-25T15:22:54.079Z,26.3
2017-06-25T15:23:14.616Z,26.2
2017-06-25T15:23:36.110Z,26.2
2017-06-25T15:23:56.647Z,26.1
2017-06-25T15:24:17.202Z,26.1
2017-06-25T15:24:37.936Z,26.1
2017-06-25T15:24:59.278Z,26.1
2017-06-25T15:25:19.839Z,26
2017-06-25T15:25:40.397Z,26
2017-06-25T15:26:00.938Z,25.9
2017-06-25T15:26:21.477Z,25.9
2017-06-25T15:26:42.013Z,25.9
2017-06-25T15:27:03.067Z,25.9
2017-06-25T15:27:23.608Z,25.9
2017-06-25T15:27:44.136Z,25.8
2017-06-25T15:28:05.581Z,25.8
2017-06-25T15:28:26.124Z,25.8
2017-06-25T15:28:46.714Z,25.8
2017-06-25T15:29:08.139Z,25.8
2017-06-25T15:29:28.713Z,25.8
2017-06-25T15:29:49.230Z,25.7
2017-06-25T15:30:09.786Z,25.8
2017-06-25T15:30:30.352Z,25.7
2017-06-25T15:30:51.625Z,25.7
2017-06-25T15:31:12.215Z,25.7
2017-06-25T15:31:32.771Z,25.7
2017-06-25T15:31:53.349Z,25.7
2017-06-25T15:32:13.888Z,25.7
2017-06-25T15:32:34.432Z,25.8
2017-06-25T15:32:54.997Z,25.7
2017-06-25T15:33:15.540Z,25.7
2017-06-25T15:33:36.127Z,25.7
2017-06-25T15:33:56.706Z,25.8
2017-06-25T15:34:18.072Z,25.8
2017-06-25T15:34:38.632Z,25.9
2017-06-25T15:34:59.178Z,25.8
2017-06-25T15:35:19.720Z,25.9
2017-06-25T15:35:40.275Z,25.9
2017-06-25T15:36:00.830Z,26
2017-06-25T15:36:21.373Z,26
2017-06-25T15:36:41.940Z,26
2017-06-25T15:37:02.499Z,26.1
2017-06-25T15:37:23.052Z,26.1
2017-06-25T15:37:44.148Z,26.3
2017-06-25T15:38:04.670Z,26.3
2017-06-25T15:38:25.241Z,26.4
2017-06-25T15:38:45.775Z,26.5
2017-06-25T15:39:06.349Z,26.5
2017-06-25T15:39:26.888Z,26.5
2017-06-25T15:39:47.575Z,26.5
2017-06-25T15:40:08.140Z,26.5
2017-06-25T15:40:28.683Z,26.6
2017-06-25T15:40:49.246Z,26.5
2017-06-25T15:41:09.775Z,26.5
2017-06-25T15:41:30.350Z,26.5
2017-06-25T15:41:51.090Z,26.5
2017-06-25T15:42:11.633Z,26.5
2017-06-25T15:42:32.186Z,26.6
2017-06-25T15:42:52.744Z,26.8
2017-06-25T15:43:13.286Z,26.9
2017-06-25T15:43:33.913Z,27
2017-06-25T15:43:54.508Z,26.9
2017-06-25T15:44:15.634Z,27.1
2017-06-25T15:44:36.144Z,27.2
2017-06-25T15:44:56.707Z,27.4
2017-06-25T15:45:17.251Z,27.6
2017-06-25T15:45:37.781Z,27.5
2017-06-25T15:45:58.313Z,27.6
2017-06-25T15:46:19.404Z,27.6
2017-06-25T15:46:41.045Z,27.7
2017-06-25T15:47:05.836Z,27.8
2017-06-25T15:47:27.329Z,28
2017-06-25T15:47:47.942Z,27.9
2017-06-25T15:48:08.515Z,28
2017-06-25T15:48:30.102Z,28
2017-06-25T15:48:50.714Z,28.1
2017-06-25T15:49:11.317Z,28.2
2017-06-25T15:49:32.960Z,28.2
2017-06-25T15:49:53.660Z,28.3
2017-06-25T15:50:16.084Z,28.3
2017-06-25T15:50:37.166Z,28.2
2017-06-25T15:50:57.706Z,28.2
2017-06-25T15:51:18.280Z,28.2
2017-06-25T15:51:40.716Z,28.2
2017-06-25T15:52:01.282Z,28.1
2017-06-25T15:52:21.874Z,28.1
2017-06-25T15:52:42.465Z,28.2
2017-06-25T15:53:03.024Z,28.2
2017-06-25T15:53:23.575Z,28.3
2017-06-25T15:53:44.152Z,28.3
2017-06-25T15:54:05.597Z,28.4
2017-06-25T15:54:26.136Z,28.5
2017-06-25T15:54:46.728Z,28.5
2017-06-25T15:55:07.281Z,28.6
2017-06-25T15:55:27.843Z,28.5
2017-06-25T15:55:49.149Z,28.5
2017-06-25T15:56:09.683Z,28.6
2017-06-25T15:56:30.224Z,28.5
2017-06-25T15:56:50.879Z,28.5
2017-06-25T15:57:11.619Z,28.6
2017-06-25T15:57:32.184Z,28.6
2017-06-25T15:57:52.734Z,28.6
2017-06-25T15:58:13.278Z,28.6
2017-06-25T15:58:33.824Z,28.6
2017-06-25T15:58:54.361Z,28.6
2017-06-25T15:59:15.610Z,28.8
2017-06-25T15:59:36.165Z,28.7
2017-06-25T15:59:57.593Z,28.6
2017-06-25T16:00:18.152Z,28.5
2017-06-25T16:00:39.651Z,28.4
2017-06-25T16:01:00.213Z,28.2
2017-06-25T16:01:21.662Z,28
2017-06-25T16:01:43.115Z,27.8
2017-06-25T16:02:03.670Z,27.6
2017-06-25T16:02:24.202Z,27.5
2017-06-25T16:02:44.728Z,27.4
2017-06-25T16:03:06.144Z,27.3
2017-06-25T16:03:27.204Z,27.2
2017-06-25T16:03:47.732Z,27.2
2017-06-25T16:04:08.276Z,27
2017-06-25T16:04:29.596Z,27.1
2017-06-25T16:04:50.151Z,27
2017-06-25T16:05:10.697Z,26.9
2017-06-25T16:05:31.227Z,26.8
2017-06-25T16:05:52.625Z,26.8
2017-06-25T16:06:13.182Z,26.8
2017-06-25T16:06:33.736Z,26.6
2017-06-25T16:06:54.286Z,26.6
2017-06-25T16:07:16.632Z,26.6
2017-06-25T16:07:37.197Z,26.6
2017-06-25T16:07:57.756Z,26.5
2017-06-25T16:08:18.301Z,26.5
2017-06-25T16:08:38.856Z,26.4
2017-06-25T16:08:59.410Z,26.5
2017-06-25T16:09:19.961Z,26.4
2017-06-25T16:09:40.510Z,26.4
2017-06-25T16:10:01.048Z,26.4
2017-06-25T16:10:21.598Z,26.4
2017-06-25T16:10:42.137Z,26.3
2017-06-25T16:11:02.688Z,26.3
2017-06-25T16:11:23.219Z,26.3
2017-06-25T16:11:43.752Z,26.3
2017-06-25T16:12:04.286Z,26.4
2017-06-25T16:12:24.842Z,26.4
2017-06-25T16:12:46.125Z,26.4
2017-06-25T16:13:06.671Z,26.3
2017-06-25T16:13:27.204Z,26.3
2017-06-25T16:13:47.753Z,26.3
2017-06-25T16:14:08.298Z,26.3
2017-06-25T16:14:28.864Z,26.2
2017-06-25T16:14:49.409Z,26.3
2017-06-25T16:15:09.986Z,26.2
2017-06-25T16:15:31.154Z,26.2
2017-06-25T16:15:51.685Z,26.2
2017-06-25T16:16:12.228Z,26.1
2017-06-25T16:16:32.785Z,26.1
2017-06-25T16:16:53.356Z,26.1
2017-06-25T16:17:14.628Z,26.1
2017-06-25T16:17:35.174Z,26.1
2017-06-25T16:17:55.725Z,26.1
2017-06-25T16:18:16.285Z,26.1
2017-06-25T16:18:37.702Z,26.1
2017-06-25T16:18:58.223Z,26.1
2017-06-25T16:19:18.766Z,26
2017-06-25T16:19:39.300Z,25.9
2017-06-25T16:19:59.825Z,25.9
2017-06-25T16:20:20.392Z,25.9
2017-06-25T16:20:40.931Z,25.9
2017-06-25T16:21:01.463Z,25.9
2017-06-25T16:21:22.622Z,25.9
2017-06-25T16:21:43.182Z,25.9
2017-06-25T16:22:03.749Z,25.8
2017-06-25T16:22:25.190Z,25.9
2017-06-25T16:22:45.727Z,25.9
2017-06-25T16:23:06.279Z,25.9
2017-06-25T16:23:26.832Z,25.8
2017-06-25T16:23:47.367Z,25.8
2017-06-25T16:24:07.916Z,25.8
2017-06-25T16:24:28.478Z,25.7
2017-06-25T16:24:49.029Z,25.8
2017-06-25T16:25:09.599Z,25.7
2017-06-25T16:25:30.139Z,25.6
2017-06-25T16:25:50.720Z,25.6
2017-06-25T16:26:11.281Z,25.5
2017-06-25T16:26:31.861Z,25.6
2017-06-25T16:26:52.412Z,25.5
2017-06-25T16:27:12.952Z,25.4
2017-06-25T16:27:33.503Z,25.5
2017-06-25T16:27:54.063Z,25.4
2017-06-25T16:28:14.608Z,25.5
2017-06-25T16:28:36.121Z,25.4
2017-06-25T16:28:56.650Z,25.4
2017-06-25T16:29:17.192Z,25.3
2017-06-25T16:29:37.737Z,25.4
2017-06-25T16:29:58.287Z,25.4
2017-06-25T16:30:19.748Z,25.3
2017-06-25T16:30:40.286Z,25.4
2017-06-25T16:31:00.841Z,25.3
2017-06-25T16:31:21.392Z,25.4
2017-06-25T16:31:41.927Z,25.3
2017-06-25T16:32:02.455Z,25.3
2017-06-25T16:32:22.980Z,25.3
2017-06-25T16:32:43.528Z,25.4
2017-06-25T16:33:04.117Z,25.3
2017-06-25T16:33:24.665Z,25.2
2017-06-25T16:33:45.231Z,25.2
2017-06-25T16:34:06.680Z,25.2
2017-06-25T16:34:27.218Z,25.3
2017-06-25T16:34:47.788Z,25.2
2017-06-25T16:35:08.329Z,25.2
2017-06-25T16:35:29.634Z,25.2
2017-06-25T16:35:50.178Z,25.2
2017-06-25T16:36:10.745Z,25.2
2017-06-25T16:36:31.291Z,25.2
2017-06-25T16:36:53.166Z,25.1
2017-06-25T16:37:13.740Z,25.1
2017-06-25T16:37:34.274Z,25.1
2017-06-25T16:37:55.697Z,25
2017-06-25T16:38:16.224Z,25.1
2017-06-25T16:38:36.761Z,25.1
2017-06-25T16:38:57.282Z,25.1
2017-06-25T16:39:19.630Z,25
2017-06-25T16:39:40.193Z,25.1
2017-06-25T16:40:00.732Z,25
2017-06-25T16:40:21.256Z,25
2017-06-25T16:40:41.819Z,25
2017-06-25T16:41:02.372Z,24.9
2017-06-25T16:41:22.880Z,24.9
2017-06-25T16:41:44.183Z,25
2017-06-25T16:42:04.717Z,25
2017-06-25T16:42:25.245Z,24.9
2017-06-25T16:42:45.775Z,24.9
2017-06-25T16:43:07.303Z,24.9
2017-06-25T16:43:29.220Z,24.8
2017-06-25T16:43:50.639Z,24.8
2017-06-25T16:44:11.179Z,24.9
2017-06-25T16:44:33.279Z,24.8
2017-06-25T16:44:53.843Z,24.8
2017-06-25T16:45:14.387Z,24.8
2017-06-25T16:45:35.720Z,24.8
2017-06-25T16:45:57.759Z,24.8
2017-06-25T16:46:18.286Z,24.8
2017-06-25T16:46:39.684Z,24.8
2017-06-25T16:47:00.246Z,24.8
2017-06-25T16:47:20.805Z,24.8
2017-06-25T16:47:41.349Z,24.8
2017-06-25T16:48:01.901Z,24.8
2017-06-25T16:48:22.433Z,24.8
2017-06-25T16:48:42.995Z,24.7
2017-06-25T16:49:03.512Z,24.7
2017-06-25T16:49:24.673Z,24.7
2017-06-25T16:49:45.214Z,24.8
2017-06-25T16:50:06.644Z,24.7
2017-06-25T16:50:27.170Z,24.7
2017-06-25T16:50:47.693Z,24.7
2017-06-25T16:51:08.230Z,24.7
2017-06-25T16:51:28.753Z,24.7
2017-06-25T16:51:49.832Z,24.6
2017-06-25T16:52:10.368Z,24.5
2017-06-25T16:52:30.903Z,24.5
2017-06-25T16:52:51.460Z,24.5
2017-06-25T16:53:12.011Z,24.4
2017-06-25T16:53:32.540Z,24.3
2017-06-25T16:53:53.088Z,24.3
2017-06-25T16:54:13.655Z,24.2
2017-06-25T16:54:34.187Z,24.1
2017-06-25T16:54:54.722Z,24.2
2017-06-25T16:55:15.248Z,24
2017-06-25T16:55:35.770Z,24
2017-06-25T16:55:57.203Z,23.9
2017-06-25T16:56:17.717Z,23.9
2017-06-25T16:56:38.249Z,23.9
2017-06-25T16:56:58.805Z,24
2017-06-25T16:57:20.242Z,23.9
2017-06-25T16:57:40.769Z,23.9
2017-06-25T16:58:01.344Z,23.8
2017-06-25T16:58:21.864Z,23.8
2017-06-25T16:58:42.389Z,23.8
2017-06-25T16:59:03.344Z,23.8
2017-06-25T16:59:23.870Z,23.8
2017-06-25T16:59:44.384Z,23.8
2017-06-25T17:00:05.686Z,23.7
2017-06-25T17:00:26.220Z,23.7
2017-06-25T17:00:46.768Z,23.7
2017-06-25T17:01:07.289Z,23.7
2017-06-25T17:01:27.830Z,23.6
2017-06-25T17:01:48.369Z,23.6
2017-06-25T17:02:08.905Z,23.6
2017-06-25T17:02:29.481Z,23.6
2017-06-25T17:02:50.007Z,23.6
2017-06-25T17:03:11.150Z,23.5
2017-06-25T17:03:31.679Z,23.5
2017-06-25T17:03:52.204Z,23.5
2017-06-25T17:04:13.713Z,23.5
2017-06-25T17:04:34.294Z,23.6
2017-06-25T17:04:54.824Z,23.5
2017-06-25T17:05:15.399Z,23.5
2017-06-25T17:05:35.936Z,23.4
2017-06-25T17:05:56.470Z,23.5
2017-06-25T17:06:17.694Z,23.5
2017-06-25T17:06:38.238Z,23.5
2017-06-25T17:06:58.783Z,23.5
2017-06-25T17:07:20.175Z,23.4
2017-06-25T17:07:40.797Z,23.4
2017-06-25T17:08:01.323Z,23.4
2017-06-25T17:08:21.853Z,23.4
2017-06-25T17:08:42.397Z,23.4
2017-06-25T17:09:02.922Z,23.3
2017-06-25T17:09:23.479Z,23.3
2017-06-25T17:09:44.028Z,23.3
2017-06-25T17:10:04.588Z,23.3
2017-06-25T17:10:25.131Z,23.4
2017-06-25T17:10:45.676Z,23.4
2017-06-25T17:11:06.208Z,23.3
2017-06-25T17:11:26.755Z,23.2
2017-06-25T17:11:47.282Z,23.2
2017-06-25T17:12:07.818Z,23.2
2017-06-25T17:12:28.357Z,23.3
2017-06-25T17:12:48.905Z,23.2
2017-06-25T17:13:09.441Z,23.3
2017-06-25T17:13:29.995Z,23.2
2017-06-25T17:13:50.532Z,23.2
2017-06-25T17:14:11.081Z,23.2
2017-06-25T17:14:31.628Z,23.2
2017-06-25T17:14:52.154Z,23.2
2017-06-25T17:15:12.681Z,23.3
2017-06-25T17:15:33.223Z,23.2
2017-06-25T17:15:54.662Z,23.2
2017-06-25T17:16:15.224Z,23.1
2017-06-25T17:16:35.779Z,23.1
2017-06-25T17:16:57.232Z,23.1
2017-06-25T17:17:17.764Z,23.1
2017-06-25T17:17:38.307Z,23
2017-06-25T17:17:58.842Z,23
2017-06-25T17:18:20.241Z,23
2017-06-25T17:18:40.762Z,23
2017-06-25T17:19:01.321Z,23
2017-06-25T17:19:21.874Z,23
2017-06-25T17:19:42.428Z,22.9
2017-06-25T17:20:02.984Z,23
2017-06-25T17:20:24.161Z,23
2017-06-25T17:20:46.189Z,23
2017-06-25T17:21:06.750Z,23
2017-06-25T17:21:27.268Z,23
2017-06-25T17:21:47.803Z,23.1
2017-06-25T17:22:08.357Z,23
2017-06-25T17:22:28.916Z,23
2017-06-25T17:22:50.267Z,23
2017-06-25T17:23:10.808Z,23.1
2017-06-25T17:23:32.169Z,23.1
2017-06-25T17:23:52.724Z,23
2017-06-25T17:24:13.286Z,23.1
2017-06-25T17:24:33.887Z,23.1
2017-06-25T17:24:54.430Z,23
2017-06-25T17:25:14.972Z,23
2017-06-25T17:25:35.531Z,23
2017-06-25T17:25:56.073Z,23
2017-06-25T17:26:17.217Z,23
2017-06-25T17:26:37.758Z,23
2017-06-25T17:26:58.292Z,23
2017-06-25T17:27:18.834Z,23.1
2017-06-25T17:27:40.327Z,23
2017-06-25T17:28:00.876Z,23
2017-06-25T17:28:21.414Z,23
2017-06-25T17:28:41.961Z,23
2017-06-25T17:29:02.525Z,23
2017-06-25T17:29:23.078Z,23
2017-06-25T17:29:43.613Z,23
2017-06-25T17:30:04.165Z,23
2017-06-25T17:30:24.703Z,23
2017-06-25T17:30:45.252Z,23
2017-06-25T17:31:05.805Z,23
2017-06-25T17:31:26.327Z,23
2017-06-25T17:31:46.883Z,23
2017-06-25T17:32:08.277Z,23
2017-06-25T17:32:29.715Z,23
2017-06-25T17:32:50.270Z,23
2017-06-25T17:33:10.806Z,23
2017-06-25T17:33:31.323Z,23
2017-06-25T17:33:51.862Z,23
2017-06-25T17:34:13.176Z,22.9
2017-06-25T17:34:34.196Z,23
2017-06-25T17:34:55.237Z,23
2017-06-25T17:35:15.755Z,23
2017-06-25T17:35:37.225Z,23
2017-06-25T17:35:58.254Z,23
2017-06-25T17:36:18.801Z,23
2017-06-25T17:36:39.336Z,23
2017-06-25T17:36:59.888Z,22.9
2017-06-25T17:37:20.422Z,23.1
2017-06-25T17:37:40.948Z,23
2017-06-25T17:38:01.473Z,22.9
2017-06-25T17:38:22.031Z,23
2017-06-25T17:38:42.574Z,23
2017-06-25T17:39:03.137Z,22.9
2017-06-25T17:39:23.702Z,22.9
2017-06-25T17:39:44.748Z,22.9
2017-06-25T17:40:05.284Z,22.9
2017-06-25T17:40:25.797Z,23
2017-06-25T17:40:46.325Z,22.9
2017-06-25T17:41:06.915Z,23